createdAt,value
2023-02-13T00:00:49.158Z,97388.00
2023-02-13T00:04:51.980Z,97386.00
2023-02-13T00:08:54.839Z,97385.00
2023-02-13T00:12:59.027Z,97377.00
2023-02-13T00:17:01.833Z,97375.00
2023-02-13T00:21:06.752Z,97376.00
2023-02-13T00:25:14.104Z,97366.00
2023-02-13T00:29:18.463Z,97373.00
2023-02-13T00:33:21.210Z,97364.00
2023-02-13T00:37:24.042Z,97361.00
2023-02-13T00:41:28.343Z,97363.00
2023-02-13T00:45:32.425Z,97357.00
2023-02-13T00:49:35.169Z,97356.00
2023-02-13T00:53:39.058Z,97354.00
2023-02-13T00:57:41.806Z,97352.00
2023-02-13T01:01:48.290Z,97352.00
2023-02-13T01:05:51.999Z,97347.00
2023-02-13T01:09:54.785Z,97354.00
2023-02-13T01:13:57.551Z,97356.00
2023-02-13T01:18:01.751Z,97351.00
2023-02-13T01:22:04.535Z,97354.00
2023-02-13T01:26:09.472Z,97357.00
2023-02-13T01:30:15.164Z,97352.00
2023-02-13T01:34:19.348Z,97346.00
2023-02-13T01:38:22.410Z,97344.00
2023-02-13T01:42:27.227Z,97350.00
2023-02-13T01:46:33.253Z,97352.00
2023-02-13T01:50:45.694Z,97346.00
2023-02-13T01:54:48.632Z,97345.00
2023-02-13T01:58:56.038Z,97347.00
2023-02-13T02:03:06.110Z,97335.00
2023-02-13T02:07:14.759Z,97352.00
2023-02-13T02:11:24.796Z,97346.00
2023-02-13T02:15:27.711Z,97354.00
2023-02-13T02:19:49.477Z,97355.00
2023-02-13T02:24:29.116Z,97364.00
2023-02-13T02:29:06.715Z,97355.00
2023-02-13T02:33:23.075Z,97349.00
2023-02-13T02:37:41.055Z,97347.00
2023-02-13T02:41:59.243Z,97343.00
2023-02-13T02:46:11.230Z,97355.00
2023-02-13T02:50:25.179Z,97358.00
2023-02-13T02:54:51.060Z,97345.00
2023-02-13T02:59:16.815Z,97352.00
2023-02-13T03:03:40.169Z,97351.00
2023-02-13T03:07:44.836Z,97349.00
2023-02-13T03:12:08.888Z,97344.00
2023-02-13T03:16:45.876Z,97348.00
2023-02-13T03:21:09.286Z,97346.00
2023-02-13T03:25:34.054Z,97339.00
2023-02-13T03:30:04.542Z,97352.00
2023-02-13T03:34:11.117Z,97354.00
2023-02-13T03:38:18.815Z,97350.00
2023-02-13T03:42:31.653Z,97353.00
2023-02-13T03:46:37.353Z,97356.00
2023-02-13T03:50:44.139Z,97356.00
2023-02-13T03:55:08.587Z,97354.00
2023-02-13T03:59:21.435Z,97350.00
2023-02-13T04:03:29.946Z,97353.00
2023-02-13T04:07:33.243Z,97367.00
2023-02-13T04:11:40.117Z,97359.00
2023-02-13T04:15:50.116Z,97360.00
2023-02-13T04:19:52.982Z,97367.00
2023-02-13T04:23:55.729Z,97362.00
2023-02-13T04:27:58.412Z,97360.00
2023-02-13T04:32:02.550Z,97362.00
2023-02-13T04:36:05.976Z,97361.00
2023-02-13T04:40:09.965Z,97354.00
2023-02-13T04:44:12.693Z,97363.00
2023-02-13T04:48:17.134Z,97360.00
2023-02-13T04:52:19.870Z,97359.00
2023-02-13T04:56:22.612Z,97357.00
2023-02-13T05:00:27.169Z,97358.00
2023-02-13T05:04:31.382Z,97366.00
2023-02-13T05:08:34.269Z,97361.00
2023-02-13T05:12:37.024Z,97363.00
2023-02-13T05:16:40.021Z,97359.00
2023-02-13T05:20:44.176Z,97368.00
2023-02-13T05:24:45.964Z,97355.00
2023-02-13T05:29:06.535Z,97357.00
2023-02-13T05:33:09.328Z,97362.00
2023-02-13T05:37:13.460Z,97361.00
2023-02-13T05:41:16.260Z,97367.00
2023-02-13T05:45:19.061Z,97382.00
2023-02-13T05:49:22.874Z,97377.00
2023-02-13T05:53:27.158Z,97378.00
2023-02-13T05:57:29.948Z,97379.00
2023-02-13T06:01:32.748Z,97380.00
2023-02-13T06:05:35.552Z,97374.00
2023-02-13T06:09:39.680Z,97376.00
2023-02-13T06:13:42.491Z,97394.00
2023-02-13T06:17:45.323Z,97384.00
2023-02-13T06:21:48.050Z,97403.00
2023-02-13T06:25:52.215Z,97399.00
2023-02-13T06:29:55.102Z,97394.00
2023-02-13T06:33:57.949Z,97404.00
2023-02-13T06:38:00.661Z,97401.00
2023-02-13T06:42:04.943Z,97409.00
2023-02-13T06:46:08.058Z,97407.00
2023-02-13T06:50:12.156Z,97405.00
2023-02-13T06:54:14.962Z,97410.00
2023-02-13T06:58:19.718Z,97417.00
2023-02-13T07:02:22.521Z,97423.00
2023-02-13T07:06:25.278Z,97423.00
2023-02-13T07:10:29.884Z,97427.00
2023-02-13T07:14:34.068Z,97439.00
2023-02-13T07:18:38.498Z,97443.00
2023-02-13T07:22:41.436Z,97441.00
2023-02-13T07:26:44.244Z,97445.00
2023-02-13T07:30:48.430Z,97448.00
2023-02-13T07:35:01.286Z,97446.00
2023-02-13T07:39:05.074Z,97457.00
2023-02-13T07:43:07.910Z,97448.00
2023-02-13T07:47:12.126Z,97451.00
2023-02-13T07:51:14.933Z,97449.00
2023-02-13T07:55:17.719Z,97462.00
2023-02-13T07:59:20.516Z,97469.00
2023-02-13T08:03:24.772Z,97466.00
2023-02-13T08:07:27.996Z,97485.00
2023-02-13T08:11:51.116Z,97480.00
2023-02-13T08:15:53.877Z,97472.00
2023-02-13T08:19:58.731Z,97470.00
2023-02-13T08:24:01.544Z,97481.00
2023-02-13T08:28:04.537Z,97480.00
2023-02-13T08:32:07.522Z,97472.00
2023-02-13T08:36:11.843Z,97485.00
2023-02-13T08:40:15.308Z,97478.00
2023-02-13T08:44:18.120Z,97476.00
2023-02-13T08:48:20.887Z,97473.00
2023-02-13T08:52:25.174Z,97467.00
2023-02-13T08:56:28.093Z,97468.00
2023-02-13T09:00:31.473Z,97468.00
2023-02-13T09:04:34.615Z,97477.00
2023-02-13T09:08:38.820Z,97480.00
2023-02-13T09:12:41.699Z,97481.00
2023-02-13T09:16:44.529Z,97494.00
2023-02-13T09:20:47.394Z,97490.00
2023-02-13T09:24:51.566Z,97499.00
2023-02-13T09:28:54.356Z,97502.00
2023-02-13T09:32:57.146Z,97496.00
2023-02-13T09:36:59.923Z,97496.00
2023-02-13T09:41:08.069Z,97495.00
2023-02-13T09:45:14.792Z,97494.00
2023-02-13T09:49:21.640Z,97487.00
2023-02-13T09:53:26.098Z,97483.00
2023-02-13T09:57:34.592Z,97487.00
2023-02-13T10:01:42.235Z,97490.00
2023-02-13T10:05:53.406Z,97495.00
2023-02-13T10:10:03.069Z,97495.00
2023-02-13T10:14:14.029Z,97492.00
2023-02-13T10:18:20.830Z,97498.00
2023-02-13T10:22:30.490Z,97478.00
2023-02-13T10:26:43.516Z,97492.00
2023-02-13T10:30:53.082Z,97488.00
2023-02-13T10:34:58.573Z,97491.00
2023-02-13T10:39:03.412Z,97483.00
2023-02-13T10:43:09.915Z,97482.00
2023-02-13T10:47:28.752Z,97485.00
2023-02-13T10:51:36.901Z,97486.00
2023-02-13T10:56:06.374Z,97479.00
2023-02-13T11:00:19.296Z,97476.00
2023-02-13T11:04:23.876Z,97470.00
2023-02-13T11:08:35.391Z,97466.00
2023-02-13T11:12:38.865Z,97464.00
2023-02-13T11:16:51.667Z,97463.00
2023-02-13T11:21:11.691Z,97462.00
2023-02-13T11:25:20.050Z,97458.00
2023-02-13T11:29:26.830Z,97457.00
2023-02-13T11:33:29.715Z,97452.00
2023-02-13T11:37:33.931Z,97453.00
2023-02-13T11:41:41.663Z,97457.00
2023-02-13T11:45:44.526Z,97455.00
2023-02-13T11:49:48.625Z,97454.00
2023-02-13T11:53:58.312Z,97457.00
2023-02-13T11:58:03.013Z,97459.00
2023-02-13T12:02:15.651Z,97459.00
2023-02-13T12:06:18.586Z,97461.00
2023-02-13T12:10:25.244Z,97445.00
2023-02-13T12:14:32.553Z,97444.00
2023-02-13T12:18:39.595Z,97449.00
2023-02-13T12:22:54.915Z,97446.00
2023-02-13T12:27:08.252Z,97446.00
2023-02-13T12:31:30.686Z,97446.00
2023-02-13T12:35:52.126Z,97434.00
2023-02-13T12:40:13.266Z,97419.00
2023-02-13T12:44:50.139Z,97428.00
2023-02-13T12:49:01.823Z,97415.00
2023-02-13T12:53:19.937Z,97404.00
2023-02-13T12:57:37.537Z,97413.00
2023-02-13T13:02:16.825Z,97417.00
2023-02-13T13:06:33.581Z,97406.00
2023-02-13T13:10:51.507Z,97407.00
2023-02-13T13:14:59.363Z,97408.00
2023-02-13T13:19:11.460Z,97413.00
2023-02-13T13:23:21.467Z,97402.00
2023-02-13T13:27:27.633Z,97408.00
2023-02-13T13:31:32.048Z,97423.00
2023-02-13T13:35:42.236Z,97416.00
2023-02-13T13:39:59.370Z,97413.00
2023-02-13T13:44:18.676Z,97419.00
2023-02-13T13:49:02.672Z,97409.00
2023-02-13T13:53:11.957Z,97409.00
2023-02-13T13:57:16.076Z,97409.00
2023-02-13T14:01:22.303Z,97411.00
2023-02-13T14:05:30.491Z,97416.00
2023-02-13T14:09:41.714Z,97409.00
2023-02-13T14:13:46.042Z,97419.00
2023-02-13T14:17:55.061Z,97419.00
2023-02-13T14:22:32.555Z,97415.00
2023-02-13T14:26:40.362Z,97414.00
2023-02-13T14:30:44.660Z,97408.00
2023-02-13T14:35:00.633Z,97412.00
2023-02-13T14:39:07.373Z,97397.00
2023-02-13T14:43:30.842Z,97408.00
2023-02-13T14:47:42.606Z,97404.00
2023-02-13T14:51:48.999Z,97411.00
2023-02-13T14:55:55.100Z,97416.00
2023-02-13T15:00:01.909Z,97411.00
2023-02-13T15:04:13.823Z,97406.00
2023-02-13T15:08:20.114Z,97407.00
2023-02-13T15:12:28.571Z,97406.00
2023-02-13T15:16:31.398Z,97396.00
2023-02-13T15:20:37.797Z,97404.00
2023-02-13T15:24:45.973Z,97398.00
2023-02-13T15:29:00.527Z,97398.00
2023-02-13T15:33:05.297Z,97397.00
2023-02-13T15:37:21.735Z,97393.00
2023-02-13T15:41:34.704Z,97394.00
2023-02-13T15:45:37.520Z,97398.00
2023-02-13T15:49:44.463Z,97381.00
2023-02-13T15:53:53.393Z,97380.00
2023-02-13T15:57:59.014Z,97391.00
2023-02-13T16:02:03.276Z,97389.00
2023-02-13T16:06:08.115Z,97390.00
2023-02-13T16:10:19.411Z,97390.00
2023-02-13T16:14:25.195Z,97373.00
2023-02-13T16:18:28.104Z,97379.00
2023-02-13T16:22:35.012Z,97389.00
2023-02-13T16:26:42.401Z,97397.00
2023-02-13T16:30:47.023Z,97400.00
2023-02-13T16:34:51.693Z,97394.00
2023-02-13T16:38:54.936Z,97404.00
2023-02-13T16:43:30.857Z,97408.00
2023-02-13T16:47:35.117Z,97405.00
2023-02-13T16:51:47.369Z,97420.00
2023-02-13T16:55:58.728Z,97418.00
2023-02-13T17:00:09.653Z,97412.00
2023-02-13T17:04:22.017Z,97406.00
2023-02-13T17:08:24.884Z,97406.00
2023-02-13T17:12:29.122Z,97405.00
2023-02-13T17:16:32.044Z,97401.00
2023-02-13T17:20:36.805Z,97405.00
2023-02-13T17:24:39.597Z,97414.00
2023-02-13T17:28:42.371Z,97416.00
2023-02-13T17:32:46.432Z,97422.00
2023-02-13T17:36:50.578Z,97421.00
2023-02-13T17:40:53.396Z,97415.00
2023-02-13T17:44:58.104Z,97418.00
2023-02-13T17:49:00.866Z,97419.00
2023-02-13T17:53:07.847Z,97410.00
2023-02-13T17:57:11.392Z,97419.00
2023-02-13T18:01:14.184Z,97410.00
2023-02-13T18:05:18.496Z,97402.00
2023-02-13T18:09:22.982Z,97398.00
2023-02-13T18:13:25.751Z,97400.00
2023-02-13T18:17:28.522Z,97412.00
2023-02-13T18:21:31.308Z,97397.00
2023-02-13T18:25:36.898Z,97404.00
2023-02-13T18:29:40.201Z,97402.00
2023-02-13T18:33:42.998Z,97398.00
2023-02-13T18:37:45.992Z,97401.00
2023-02-13T18:41:50.133Z,97401.00
2023-02-13T18:45:52.932Z,97399.00
2023-02-13T18:49:55.676Z,97401.00
2023-02-13T18:53:59.286Z,97383.00
2023-02-13T18:58:03.592Z,97399.00
2023-02-13T19:02:06.387Z,97397.00
2023-02-13T19:06:10.747Z,97395.00
2023-02-13T19:10:14.828Z,97395.00
2023-02-13T19:14:19.039Z,97396.00
2023-02-13T19:18:21.861Z,97397.00
2023-02-13T19:22:24.868Z,97394.00
2023-02-13T19:26:28.763Z,97392.00
2023-02-13T19:30:33.056Z,97405.00
2023-02-13T19:34:35.980Z,97399.00
2023-02-13T19:38:39.430Z,97402.00
2023-02-13T19:42:42.289Z,97402.00
2023-02-13T19:46:46.572Z,97398.00
2023-02-13T19:50:49.616Z,97398.00
2023-02-13T19:54:54.075Z,97398.00
2023-02-13T19:58:57.293Z,97389.00
2023-02-13T20:03:05.468Z,97394.00
2023-02-13T20:07:08.255Z,97391.00
2023-02-13T20:11:12.644Z,97386.00
2023-02-13T20:15:15.474Z,97401.00
2023-02-13T20:19:19.652Z,97394.00
2023-02-13T20:23:22.418Z,97409.00
2023-02-13T20:27:25.182Z,97396.00
2023-02-13T20:31:30.301Z,97406.00
2023-02-13T20:35:34.590Z,97400.00
2023-02-13T20:39:37.401Z,97401.00
2023-02-13T20:43:40.399Z,97397.00
2023-02-13T20:47:43.268Z,97393.00
2023-02-13T20:51:47.535Z,97398.00
2023-02-13T20:55:50.321Z,97393.00
2023-02-13T20:59:53.144Z,97397.00
2023-02-13T21:03:57.624Z,97386.00
2023-02-13T21:08:01.748Z,97390.00
2023-02-13T21:12:05.654Z,97391.00
2023-02-13T21:16:11.012Z,97395.00
2023-02-13T21:20:13.903Z,97385.00
2023-02-13T21:24:20.528Z,97394.00
2023-02-13T21:28:23.516Z,97384.00
2023-02-13T21:32:26.486Z,97387.00
2023-02-13T21:36:29.794Z,97385.00
2023-02-13T21:40:33.956Z,97377.00
2023-02-13T21:44:36.762Z,97373.00
2023-02-13T21:48:40.414Z,97369.00
2023-02-13T21:52:43.283Z,97354.00
2023-02-13T21:56:47.423Z,97357.00
2023-02-13T22:00:50.225Z,97352.00
2023-02-13T22:04:53.157Z,97348.00
2023-02-13T22:08:59.871Z,97344.00
2023-02-13T22:13:04.232Z,97350.00
2023-02-13T22:17:07.128Z,97337.00
2023-02-13T22:21:13.356Z,97340.00
2023-02-13T22:25:16.171Z,97341.00
2023-02-13T22:29:22.904Z,97327.00
2023-02-13T22:33:25.997Z,97324.00
2023-02-13T22:37:28.724Z,97328.00
2023-02-13T22:41:31.501Z,97324.00
2023-02-13T22:45:36.903Z,97327.00
2023-02-13T22:49:39.674Z,97324.00
2023-02-13T22:53:42.663Z,97320.00
2023-02-13T22:57:46.846Z,97329.00
2023-02-13T23:01:51.121Z,97324.00
2023-02-13T23:05:54.712Z,97322.00
2023-02-13T23:09:57.519Z,97325.00
2023-02-13T23:14:00.700Z,97323.00
2023-02-13T23:18:14.244Z,97334.00
2023-02-13T23:22:17.080Z,97319.00
2023-02-13T23:26:20.152Z,97325.00
2023-02-13T23:30:23.690Z,97333.00
2023-02-13T23:34:28.013Z,97334.00
2023-02-13T23:38:30.906Z,97338.00
2023-02-13T23:42:33.715Z,97342.00
2023-02-13T23:46:36.515Z,97335.00
2023-02-13T23:50:40.977Z,97323.00
2023-02-13T23:54:43.775Z,97328.00
2023-02-13T23:58:46.564Z,97315.00
